Terminal Aerodrome Forecast
Issued by NWS Mt. Holly, NJ

Home | Current Version | Previous Version | Text Only | Print | Product List | Glossary On
Versions: 1 2 3 4 5 6 7 8 9 10 11 12 13 14 15 16 17 18 19
756
FTUS41 KPHI 200524
TAFTTN
TAF
KTTN 200524Z 2006/2106 28008KT P6SM SCT250
     FM201400 28010G22KT P6SM SKC
     FM202200 25006KT P6SM SKC
     FM210300 22005KT P6SM SKC=

USA.gov is the U.S. government's official web portal to all federal, state and local government web resources and services.